Time;durP1;ratioP1;P1;durP2;ratioP2;P2;SDS_P1;SDS_P2;PMS_P1;PMS_P2;Temp;Humidity;BMP_temperature;BMP_pressure;BME280_temperature;BME280_humidity;BME280_pressure;Samples;Min_cycle;Max_cycle;Signal;HPM_P1;HPM_P2
2021/12/02 00:01:04;;;;;;;25.90;12.87;;;2.30;99.90;;;;;;4123953;28;20263;-58
2021/12/02 00:03:08;;;;;;;32.63;16.60;;;2.20;99.90;;;;;;4125030;28;20284;-59
2021/12/02 00:05:09;;;;;;;21.83;12.20;;;2.30;99.90;;;;;;4123571;28;20335;-60
2021/12/02 00:07:10;;;;;;;19.60;10.43;;;2.30;99.90;;;;;;4125577;28;20291;-58
2021/12/02 00:09:11;;;;;;;19.47;10.03;;;2.30;99.90;;;;;;4123611;28;20264;-56
2021/12/02 00:11:14;;;;;;;26.13;12.77;;;2.40;99.90;;;;;;4124580;28;20260;-62
2021/12/02 00:13:15;;;;;;;19.27;10.57;;;2.40;99.90;;;;;;4123891;28;20256;-56
2021/12/02 00:15:22;;;;;;;14.30;8.20;;;2.50;99.90;;;;;;4124073;28;20284;-58
2021/12/02 00:17:27;;;;;;;19.77;9.83;;;2.50;99.90;;;;;;4123653;28;20310;-60
2021/12/02 00:21:51;;;;;;;16.97;9.07;;;2.60;99.90;;;;;;4123725;28;20268;-73
2021/12/02 00:24:03;;;;;;;25.50;9.83;;;2.70;99.90;;;;;;4124049;28;20302;-58
2021/12/02 00:26:16;;;;;;;22.60;11.97;;;2.70;99.90;;;;;;4124753;28;20267;-68
2021/12/02 00:28:20;;;;;;;26.70;12.77;;;2.80;99.90;;;;;;4124677;28;20328;-58
2021/12/02 00:30:21;;;;;;;26.03;11.87;;;2.80;99.90;;;;;;4124047;28;20791;-66
2021/12/02 00:32:25;;;;;;;18.87;9.60;;;2.80;99.90;;;;;;4123420;28;20963;-61
2021/12/02 00:34:27;;;;;;;23.33;11.00;;;2.80;99.90;;;;;;4124195;28;20326;-60
2021/12/02 00:36:31;;;;;;;33.70;13.70;;;2.80;99.90;;;;;;4123020;28;20279;-58
2021/12/02 00:38:32;;;;;;;31.10;14.30;;;2.90;99.90;;;;;;4124520;28;20264;-62
2021/12/02 00:40:34;;;;;;;32.30;14.67;;;2.90;99.90;;;;;;4121567;28;20280;-56
2021/12/02 00:42:38;;;;;;;29.23;13.83;;;2.90;99.90;;;;;;4124595;28;20331;-57
2021/12/02 00:44:39;;;;;;;28.07;12.33;;;2.90;99.90;;;;;;4123507;28;20339;-58
2021/12/02 00:46:42;;;;;;;36.73;13.47;;;2.90;99.90;;;;;;4126632;28;20268;-56
2021/12/02 00:48:45;;;;;;;24.53;12.87;;;2.90;99.90;;;;;;4125882;28;20334;-58
2021/12/02 00:50:48;;;;;;;26.33;12.10;;;3.00;99.90;;;;;;4127587;28;20272;-59
2021/12/02 00:52:50;;;;;;;20.33;10.77;;;2.90;99.90;;;;;;4126345;28;20280;-69
2021/12/02 00:54:54;;;;;;;20.93;9.90;;;2.90;99.90;;;;;;4127403;28;20613;-58
2021/12/02 00:56:56;;;;;;;18.87;10.63;;;2.90;99.90;;;;;;4126100;28;20755;-59
2021/12/02 00:58:58;;;;;;;18.53;8.17;;;2.90;99.90;;;;;;4127857;28;20772;-64
2021/12/02 01:01:00;;;;;;;13.53;8.13;;;2.90;99.90;;;;;;4126142;28;20256;-57
2021/12/02 01:03:02;;;;;;;15.30;7.23;;;3.00;99.90;;;;;;4126206;28;20260;-58
2021/12/02 01:05:04;;;;;;;16.00;8.13;;;2.90;99.90;;;;;;4126244;28;20719;-59
2021/12/02 01:07:05;;;;;;;18.57;7.97;;;3.00;99.90;;;;;;4126317;28;20288;-61
2021/12/02 01:09:09;;;;;;;18.03;9.03;;;2.90;99.90;;;;;;4126772;28;20725;-61
2021/12/02 01:11:12;;;;;;;17.50;10.57;;;2.90;99.90;;;;;;4126047;28;21217;-59
2021/12/02 01:13:13;;;;;;;20.23;10.97;;;2.90;99.90;;;;;;4126272;28;20330;-62
2021/12/02 01:15:15;;;;;;;22.10;10.57;;;2.90;99.90;;;;;;4125519;28;20330;-59
2021/12/02 01:17:16;;;;;;;19.10;11.63;;;2.90;99.90;;;;;;4126950;28;20752;-60
2021/12/02 01:19:17;;;;;;;20.13;10.37;;;2.90;99.90;;;;;;4125330;28;20272;-60
2021/12/02 01:21:21;;;;;;;24.10;10.37;;;2.90;99.90;;;;;;4126837;28;20403;-59
2021/12/02 01:23:27;;;;;;;22.27;10.93;;;2.90;99.90;;;;;;4125745;28;20280;-60
2021/12/02 01:25:32;;;;;;;18.67;11.10;;;3.00;99.90;;;;;;4126899;28;20764;-59
2021/12/02 01:27:35;;;;;;;18.00;9.17;;;3.00;99.90;;;;;;4124886;28;20288;-55
2021/12/02 01:29:38;;;;;;;23.53;9.67;;;3.00;99.90;;;;;;4126886;28;20323;-58
2021/12/02 01:31:39;;;;;;;19.23;9.33;;;3.00;99.90;;;;;;4124912;28;20304;-59
2021/12/02 01:33:43;;;;;;;19.13;9.73;;;3.00;99.90;;;;;;4126582;28;20323;-55
2021/12/02 01:35:49;;;;;;;15.50;9.37;;;3.00;99.90;;;;;;4125992;28;20306;-60
2021/12/02 01:37:51;;;;;;;18.67;10.67;;;3.00;99.90;;;;;;4127058;28;20276;-57
2021/12/02 01:39:53;;;;;;;18.60;10.10;;;2.90;99.90;;;;;;4125739;28;20648;-67
2021/12/02 01:41:57;;;;;;;29.83;13.33;;;2.90;99.90;;;;;;4126744;28;20272;-58
2021/12/02 01:43:58;;;;;;;27.03;12.50;;;2.90;99.90;;;;;;4126107;28;20331;-57
2021/12/02 01:46:00;;;;;;;29.90;12.70;;;2.80;99.90;;;;;;4125636;28;20593;-58
2021/12/02 01:48:03;;;;;;;28.43;13.87;;;2.70;99.90;;;;;;4125883;28;20637;-59
2021/12/02 01:50:09;;;;;;;27.20;14.93;;;2.70;99.90;;;;;;4125732;28;20276;-58
2021/12/02 01:52:13;;;;;;;30.90;14.70;;;2.80;99.90;;;;;;4125789;28;20260;-60
2021/12/02 01:54:21;;;;;;;31.93;15.27;;;2.80;99.90;;;;;;4124811;28;20256;-62
2021/12/02 01:56:27;;;;;;;29.37;13.63;;;2.90;99.90;;;;;;4125980;28;20319;-60
2021/12/02 01:58:31;;;;;;;25.90;12.63;;;2.90;99.90;;;;;;4124763;28;21319;-69
2021/12/02 02:00:41;;;;;;;30.37;13.33;;;2.90;99.90;;;;;;4126708;28;20272;-61
2021/12/02 02:02:42;;;;;;;21.98;12.27;;;2.90;99.90;;;;;;4124987;28;20318;-66
2021/12/02 02:04:45;;;;;;;22.40;12.30;;;3.00;99.90;;;;;;4126365;28;20043;-58
2021/12/02 02:07:00;;;;;;;22.73;11.47;;;3.00;99.90;;;;;;4124562;28;20276;-59
2021/12/02 02:09:02;;;;;;;18.27;10.63;;;3.00;99.90;;;;;;4126286;28;21691;-59
2021/12/02 02:11:03;;;;;;;19.57;10.30;;;3.00;99.90;;;;;;4125216;28;20319;-59
2021/12/02 02:13:09;;;;;;;20.70;10.53;;;3.00;99.90;;;;;;4125949;28;20669;-57
2021/12/02 02:15:11;;;;;;;16.40;9.63;;;3.00;99.90;;;;;;4124951;28;20346;-57
2021/12/02 02:17:23;;;;;;;17.67;9.77;;;3.00;99.90;;;;;;4125875;28;20752;-59
2021/12/02 02:19:29;;;;;;;18.77;9.90;;;3.00;99.90;;;;;;4125197;28;20265;-59
2021/12/02 02:21:32;;;;;;;19.70;10.10;;;3.10;99.90;;;;;;4125948;28;20268;-57
2021/12/02 02:23:38;;;;;;;21.57;10.83;;;3.10;99.90;;;;;;4124570;28;20756;-69
2021/12/02 02:25:45;;;;;;;21.40;12.17;;;3.00;99.90;;;;;;4126128;28;20331;-63
2021/12/02 02:27:46;;;;;;;30.63;14.63;;;3.00;99.90;;;;;;4125261;28;20335;-60
2021/12/02 02:29:48;;;;;;;27.33;13.87;;;2.90;99.90;;;;;;4126367;28;20285;-68
2021/12/02 02:31:49;;;;;;;28.63;13.63;;;2.90;99.90;;;;;;4124503;28;21070;-66
2021/12/02 02:33:52;;;;;;;27.23;13.93;;;2.90;99.90;;;;;;4125469;28;20327;-63
2021/12/02 02:35:53;;;;;;;28.10;15.30;;;2.90;99.90;;;;;;4125431;28;20302;-54
2021/12/02 02:37:55;;;;;;;26.23;14.83;;;2.90;99.90;;;;;;4125921;28;20280;-56
2021/12/02 02:39:56;;;;;;;26.50;14.23;;;2.90;99.90;;;;;;4125385;28;20728;-58
2021/12/02 02:41:59;;;;;;;28.30;13.93;;;2.90;99.90;;;;;;4124690;28;20264;-61
2021/12/02 02:44:03;;;;;;;29.17;14.83;;;3.00;99.90;;;;;;4125509;28;20342;-64
2021/12/02 02:46:04;;;;;;;31.27;14.47;;;3.00;99.90;;;;;;4124332;28;20906;-59
2021/12/02 02:48:05;;;;;;;24.07;13.10;;;3.10;99.90;;;;;;4125803;28;20312;-58
2021/12/02 02:50:11;;;;;;;32.33;14.87;;;3.00;99.90;;;;;;4124363;28;20276;-61
2021/12/02 02:52:12;;;;;;;25.67;14.20;;;3.00;99.90;;;;;;4125614;28;20264;-57
2021/12/02 02:54:16;;;;;;;33.80;15.47;;;3.00;99.90;;;;;;4124633;28;20272;-60
2021/12/02 02:56:20;;;;;;;25.50;13.10;;;3.10;99.90;;;;;;4125751;28;20268;-68
2021/12/02 03:00:57;;;;;;;;;;;3.10;99.90;;;;;;4126545;28;20319;-57
2021/12/02 03:11:46;;;;;;;26.60;13.30;;;3.10;99.90;;;;;;4124175;28;20331;-61
2021/12/02 03:13:52;;;;;;;28.50;15.33;;;3.10;99.90;;;;;;4125397;28;21115;-60
2021/12/02 03:18:13;;;;;;;22.60;12.07;;;3.10;99.90;;;;;;4125308;28;20878;-69
2021/12/02 03:20:14;;;;;;;23.53;12.60;;;3.00;99.90;;;;;;4124045;28;20269;-75
2021/12/02 03:22:16;;;;;;;23.80;12.63;;;3.00;99.90;;;;;;4125506;28;20268;-68
2021/12/02 03:24:18;;;;;;;27.50;12.47;;;3.00;99.90;;;;;;4124352;28;20700;-75
2021/12/02 03:26:20;;;;;;;26.23;12.20;;;3.00;99.90;;;;;;4125973;28;20264;-64
2021/12/02 03:28:21;;;;;;;22.73;13.27;;;3.00;99.90;;;;;;4124401;28;21081;-60
2021/12/02 03:30:22;;;;;;;26.43;13.00;;;3.00;99.90;;;;;;4125261;28;20302;-73
2021/12/02 03:32:23;;;;;;;31.83;14.07;;;3.00;99.90;;;;;;4124264;28;20692;-55
2021/12/02 03:34:25;;;;;;;23.53;12.83;;;3.00;99.90;;;;;;4125273;28;20346;-70
2021/12/02 03:36:27;;;;;;;31.10;14.77;;;2.90;99.90;;;;;;4124677;28;20307;-65
2021/12/02 03:38:29;;;;;;;31.73;14.77;;;2.90;99.90;;;;;;4124554;28;20322;-60
2021/12/02 03:40:30;;;;;;;35.27;15.07;;;2.80;99.90;;;;;;4124781;28;20295;-63
2021/12/02 03:42:31;;;;;;;32.93;14.60;;;2.80;99.90;;;;;;4123945;28;20324;-70
2021/12/02 03:44:32;;;;;;;30.60;15.10;;;2.80;99.90;;;;;;4125178;28;20319;-70
2021/12/02 03:46:35;;;;;;;32.20;15.33;;;2.80;99.90;;;;;;4123519;28;20330;-76
2021/12/02 03:48:36;;;;;;;35.00;16.73;;;2.80;99.90;;;;;;4125031;28;20280;-62
2021/12/02 03:50:37;;;;;;;28.63;13.97;;;2.80;99.90;;;;;;4123887;28;20307;-60
2021/12/02 03:52:38;;;;;;;31.57;15.47;;;2.90;99.90;;;;;;4125205;28;20280;-61
2021/12/02 03:54:39;;;;;;;28.60;14.33;;;2.90;99.90;;;;;;4124119;28;20290;-74
2021/12/02 03:56:41;;;;;;;30.30;14.87;;;2.80;99.90;;;;;;4125373;28;20272;-63
2021/12/02 03:58:45;;;;;;;28.60;14.10;;;2.90;99.90;;;;;;4124468;28;20342;-59
2021/12/02 04:00:46;;;;;;;33.50;13.23;;;2.90;99.90;;;;;;4125146;28;20322;-62
2021/12/02 04:02:47;;;;;;;25.23;13.00;;;2.80;99.90;;;;;;4123555;28;20319;-60
2021/12/02 04:04:48;;;;;;;26.63;14.43;;;2.90;99.90;;;;;;4125384;28;20755;-69
2021/12/02 04:06:49;;;;;;;25.93;13.37;;;2.90;99.90;;;;;;4124083;28;20260;-68
2021/12/02 04:08:54;;;;;;;30.43;15.30;;;2.90;99.90;;;;;;4124467;28;20303;-75
2021/12/02 04:11:00;;;;;;;21.77;10.57;;;2.90;99.90;;;;;;4123935;28;20995;-69
2021/12/02 04:15:05;;;;;;;19.27;10.27;;;2.90;99.90;;;;;;4125022;28;20310;-67
2021/12/02 04:17:07;;;;;;;17.07;9.07;;;2.90;99.90;;;;;;4124368;28;20276;-67
2021/12/02 04:19:10;;;;;;;17.23;9.57;;;2.90;99.90;;;;;;4124602;28;20826;-59
2021/12/02 04:21:12;;;;;;;22.33;9.73;;;2.90;99.90;;;;;;4125624;28;20342;-72
2021/12/02 04:23:13;;;;;;;23.77;11.10;;;2.90;99.90;;;;;;4128461;28;20326;-66
2021/12/02 04:25:16;;;;;;;16.23;8.97;;;3.00;99.90;;;;;;4126711;28;20319;-62
2021/12/02 04:27:17;;;;;;;17.57;8.80;;;2.90;99.90;;;;;;4127828;28;20334;-59
2021/12/02 04:29:19;;;;;;;15.20;9.20;;;3.00;99.90;;;;;;4126509;28;20834;-60
2021/12/02 04:31:20;;;;;;;19.37;9.43;;;3.00;99.90;;;;;;4127782;28;21187;-60
2021/12/02 04:33:21;;;;;;;68.57;25.47;;;3.00;99.90;;;;;;4126283;28;20260;-74
2021/12/02 04:35:23;;;;;;;49.30;21.37;;;3.00;99.90;;;;;;4127670;28;21052;-64
2021/12/02 04:37:24;;;;;;;33.13;16.40;;;3.00;99.90;;;;;;4126273;28;20302;-59
2021/12/02 04:39:25;;;;;;;29.67;13.80;;;3.00;99.90;;;;;;4127636;28;20312;-60
2021/12/02 04:41:26;;;;;;;26.07;12.73;;;3.00;99.90;;;;;;4126789;28;20252;-58
2021/12/02 04:43:27;;;;;;;45.43;21.53;;;3.00;99.90;;;;;;4126716;28;20260;-60
2021/12/02 04:45:28;;;;;;;36.60;16.13;;;2.90;99.90;;;;;;4127459;28;20330;-64
2021/12/02 04:47:31;;;;;;;20.53;11.23;;;2.90;99.90;;;;;;4126334;28;20354;-61
2021/12/02 04:49:32;;;;;;;13.30;7.87;;;2.90;99.90;;;;;;4127210;28;20331;-61
2021/12/02 04:51:33;;;;;;;32.30;14.70;;;3.00;99.90;;;;;;4126217;28;20415;-66
2021/12/02 04:53:34;;;;;;;15.37;8.20;;;3.10;99.90;;;;;;4127324;28;20815;-56
2021/12/02 04:55:36;;;;;;;22.77;10.87;;;3.10;99.90;;;;;;4126110;28;20326;-58
2021/12/02 04:57:37;;;;;;;27.57;13.43;;;3.10;99.90;;;;;;4127268;28;20775;-61
2021/12/02 04:59:38;;;;;;;38.30;15.17;;;3.20;99.90;;;;;;4125958;28;20857;-60
2021/12/02 05:01:39;;;;;;;38.40;16.73;;;3.20;99.90;;;;;;4126883;28;20327;-59
2021/12/02 05:03:40;;;;;;;87.77;42.90;;;3.20;99.90;;;;;;4124883;28;20338;-61
2021/12/02 05:05:41;;;;;;;55.10;26.37;;;3.30;99.90;;;;;;4131036;28;20410;-71
2021/12/02 05:07:42;;;;;;;43.97;19.20;;;3.20;99.90;;;;;;4129532;28;20644;-64
2021/12/02 05:09:43;;;;;;;46.03;21.67;;;3.20;99.90;;;;;;4128387;28;20346;-64
2021/12/02 05:11:45;;;;;;;48.27;22.20;;;3.30;99.90;;;;;;4127044;28;20841;-65
2021/12/02 05:13:46;;;;;;;65.83;29.97;;;3.30;99.90;;;;;;4130609;28;20271;-62
2021/12/02 05:15:47;;;;;;;72.60;36.43;;;3.30;99.90;;;;;;4129074;28;20322;-55
2021/12/02 05:17:48;;;;;;;60.43;30.43;;;3.30;99.90;;;;;;4128191;28;20688;-60
2021/12/02 05:19:50;;;;;;;64.07;29.73;;;3.30;99.90;;;;;;4129349;28;20850;-61
2021/12/02 05:21:51;;;;;;;60.67;27.53;;;3.30;99.90;;;;;;4128327;28;20334;-66
2021/12/02 05:23:54;;;;;;;48.03;25.80;;;3.40;99.90;;;;;;4129546;28;20280;-60
2021/12/02 05:25:55;;;;;;;41.03;23.20;;;3.40;99.90;;;;;;4128389;28;20333;-62
2021/12/02 05:27:56;;;;;;;43.87;22.73;;;3.40;99.90;;;;;;4129096;28;21024;-60
2021/12/02 05:29:57;;;;;;;46.00;22.27;;;3.40;99.90;;;;;;4128742;28;20271;-62
2021/12/02 05:31:59;;;;;;;36.37;19.97;;;3.50;99.90;;;;;;4129148;28;20412;-61
2021/12/02 05:34:00;;;;;;;47.80;21.00;;;3.60;99.90;;;;;;4153445;28;20283;-62
2021/12/02 05:36:01;;;;;;;73.70;34.77;;;3.60;99.90;;;;;;4134650;28;20280;-62
2021/12/02 05:38:03;;;;;;;76.27;32.03;;;3.60;99.90;;;;;;4128998;28;20276;-62
2021/12/02 05:40:05;;;;;;;59.37;26.60;;;3.60;99.90;;;;;;4130027;28;20272;-59
2021/12/02 05:42:06;;;;;;;53.10;26.10;;;3.60;99.90;;;;;;4126487;28;20291;-61
2021/12/02 05:44:07;;;;;;;39.73;19.87;;;3.60;99.90;;;;;;4130636;28;20283;-63
2021/12/02 05:46:09;;;;;;;37.43;20.33;;;3.60;99.90;;;;;;4128943;28;20267;-61
2021/12/02 05:48:10;;;;;;;43.67;18.03;;;3.60;99.90;;;;;;4130346;28;20299;-61
2021/12/02 05:50:11;;;;;;;39.70;18.47;;;3.60;99.90;;;;;;4128768;28;20268;-64
2021/12/02 05:52:12;;;;;;;41.30;19.57;;;3.70;99.90;;;;;;4132639;28;20760;-61
2021/12/02 05:54:14;;;;;;;37.53;19.03;;;3.60;99.90;;;;;;4128547;28;20276;-64
2021/12/02 05:56:15;;;;;;;35.40;18.37;;;3.70;99.90;;;;;;4126772;28;20291;-67
2021/12/02 05:58:16;;;;;;;36.10;18.50;;;3.70;99.90;;;;;;4140520;28;20372;-63
2021/12/02 06:00:18;;;;;;;33.67;16.10;;;3.70;99.90;;;;;;4152171;28;20283;-61
2021/12/02 06:02:19;;;;;;;33.83;17.30;;;3.70;99.90;;;;;;4141548;28;20279;-63
2021/12/02 06:04:20;;;;;;;41.83;19.97;;;3.80;99.90;;;;;;4137052;28;20326;-60
2021/12/02 06:06:25;;;;;;;40.07;17.87;;;3.90;99.90;;;;;;4126054;28;20657;-65
2021/12/02 06:08:26;;;;;;;46.03;19.07;;;3.90;99.90;;;;;;4124378;28;21090;-76
2021/12/02 06:10:29;;;;;;;49.13;22.37;;;3.90;99.90;;;;;;4126194;28;20331;-71
2021/12/02 06:12:30;;;;;;;53.13;21.73;;;4.00;99.90;;;;;;4124995;28;20302;-64
2021/12/02 06:14:31;;;;;;;58.60;22.27;;;4.10;99.90;;;;;;4125723;28;20323;-78
2021/12/02 06:16:32;;;;;;;44.30;20.30;;;4.10;99.90;;;;;;4124378;28;20675;-62
2021/12/02 06:18:34;;;;;;;48.63;18.10;;;4.20;99.90;;;;;;4124800;28;20276;-78
2021/12/02 06:20:35;;;;;;;56.57;28.00;;;4.20;99.90;;;;;;4125340;28;20260;-69
2021/12/02 06:22:37;;;;;;;44.13;21.07;;;4.30;99.90;;;;;;4124344;28;20330;-63
2021/12/02 06:24:54;;;;;;;35.70;17.73;;;4.40;99.90;;;;;;4125509;28;20647;-62
2021/12/02 06:26:56;;;;;;;33.67;16.47;;;4.50;99.90;;;;;;4124014;28;20812;-62
2021/12/02 06:28:58;;;;;;;30.10;15.73;;;4.60;99.90;;;;;;4125967;28;20292;-62
2021/12/02 06:31:02;;;;;;;29.97;14.30;;;4.70;99.90;;;;;;4124343;28;20359;-61
2021/12/02 06:33:04;;;;;;;21.67;11.87;;;4.80;99.90;;;;;;4125555;28;20753;-64
2021/12/02 06:35:05;;;;;;;28.53;12.30;;;5.00;99.90;;;;;;4124140;28;20318;-77
2021/12/02 06:37:06;;;;;;;20.17;11.67;;;5.10;99.90;;;;;;4125363;28;20330;-61
2021/12/02 06:39:08;;;;;;;20.27;9.57;;;5.10;99.90;;;;;;4124595;28;20422;-62
2021/12/02 06:41:10;;;;;;;13.50;6.87;;;5.20;99.90;;;;;;4125445;28;20338;-61
2021/12/02 06:43:14;;;;;;;10.67;5.40;;;5.30;99.90;;;;;;4124385;28;20551;-72
2021/12/02 06:45:16;;;;;;;11.87;4.77;;;5.30;99.90;;;;;;4125165;28;20346;-60
2021/12/02 06:47:19;;;;;;;5.33;2.90;;;5.40;99.90;;;;;;4123628;28;20330;-64
2021/12/02 06:49:20;;;;;;;4.20;2.60;;;5.50;99.90;;;;;;4124931;28;20300;-62
2021/12/02 06:51:21;;;;;;;2.57;1.47;;;5.60;99.90;;;;;;4124494;28;20081;-62
2021/12/02 06:53:22;;;;;;;1.30;1.00;;;5.80;99.90;;;;;;4125017;28;20256;-60
2021/12/02 06:55:23;;;;;;;11.33;4.33;;;6.00;99.90;;;;;;4124464;28;20267;-64
2021/12/02 06:57:26;;;;;;;12.17;6.80;;;6.10;99.90;;;;;;4124558;28;20164;-67
2021/12/02 06:59:27;;;;;;;15.93;7.23;;;6.20;99.90;;;;;;4125096;28;20042;-62
2021/12/02 07:01:28;;;;;;;23.67;8.70;;;6.20;99.90;;;;;;4123823;28;21369;-71
2021/12/02 07:03:29;;;;;;;18.13;8.43;;;6.20;99.90;;;;;;4125188;28;20046;-65
2021/12/02 07:05:32;;;;;;;26.13;8.57;;;6.20;99.90;;;;;;4124281;28;20130;-61
2021/12/02 07:07:37;;;;;;;18.93;7.80;;;6.10;99.90;;;;;;4125364;28;20454;-62
2021/12/02 07:09:38;;;;;;;15.07;7.67;;;6.20;99.90;;;;;;4124254;28;20632;-68
2021/12/02 07:11:39;;;;;;;28.47;9.53;;;6.20;99.90;;;;;;4125226;28;20034;-64
2021/12/02 07:13:40;;;;;;;19.83;9.97;;;6.20;99.90;;;;;;4123528;28;20038;-62
2021/12/02 07:16:00;;;;;;;22.70;8.53;;;6.20;99.90;;;;;;4125160;28;20065;-63
2021/12/02 07:18:02;;;;;;;18.73;7.53;;;6.20;99.90;;;;;;4124064;28;20076;-62
2021/12/02 07:20:04;;;;;;;15.10;8.10;;;6.20;99.90;;;;;;4125362;28;20030;-63
2021/12/02 07:22:05;;;;;;;16.20;6.70;;;6.30;99.90;;;;;;4123424;28;20030;-62
2021/12/02 07:24:09;;;;;;;17.80;6.80;;;6.30;99.90;;;;;;4124609;28;20438;-67
2021/12/02 07:26:10;;;;;;;22.97;9.57;;;6.40;99.90;;;;;;4123880;28;20022;-66
2021/12/02 07:28:13;;;;;;;20.17;10.33;;;6.50;99.90;;;;;;4124502;28;20034;-73
2021/12/02 07:30:15;;;;;;;25.83;10.97;;;6.50;99.90;;;;;;4124170;28;20129;-64
2021/12/02 07:32:16;;;;;;;34.93;13.40;;;6.40;99.90;;;;;;4124304;28;20495;-64
2021/12/02 07:34:19;;;;;;;45.37;14.97;;;6.40;99.90;;;;;;4124134;28;20475;-62
2021/12/02 07:36:21;;;;;;;34.33;12.13;;;6.40;99.90;;;;;;4124222;28;20081;-71
2021/12/02 07:38:25;;;;;;;25.87;10.83;;;6.40;99.90;;;;;;4124529;28;20030;-70
2021/12/02 07:40:28;;;;;;;28.23;11.50;;;6.40;99.90;;;;;;4124190;28;20030;-64
2021/12/02 07:42:29;;;;;;;38.73;12.10;;;6.50;99.90;;;;;;4124198;28;20368;-63
2021/12/02 07:44:35;;;;;;;43.60;12.50;;;6.50;99.90;;;;;;4123534;28;20093;-62
2021/12/02 07:46:36;;;;;;;28.30;11.50;;;6.60;99.90;;;;;;4124711;28;20042;-60
2021/12/02 07:48:38;;;;;;;30.20;12.00;;;6.60;99.90;;;;;;4121964;28;20581;-61
2021/12/02 07:50:39;;;;;;;21.00;10.23;;;6.60;99.90;;;;;;4124272;28;20089;-63
2021/12/02 07:52:49;;;;;;;20.67;9.70;;;6.70;99.90;;;;;;4123145;28;20096;-66
2021/12/02 07:54:51;;;;;;;25.95;9.65;;;6.70;99.90;;;;;;4122909;28;20038;-65
2021/12/02 07:56:53;;;;;;;25.93;11.50;;;6.70;99.90;;;;;;4126440;28;20042;-61
2021/12/02 07:58:54;;;;;;;25.17;10.77;;;6.70;99.90;;;;;;4127745;28;20557;-62
2021/12/02 08:01:00;;;;;;;14.17;9.07;;;6.70;99.90;;;;;;4126978;28;20042;-70
2021/12/02 08:03:05;;;;;;;22.47;10.20;;;6.70;99.90;;;;;;4127426;28;20105;-62
2021/12/02 08:05:06;;;;;;;20.50;9.30;;;6.80;99.90;;;;;;4126517;28;20030;-66
2021/12/02 08:07:08;;;;;;;26.43;10.87;;;6.80;99.90;;;;;;4127370;28;20043;-73
2021/12/02 08:09:13;;;;;;;21.23;9.47;;;6.90;99.90;;;;;;4125718;28;20589;-63
2021/12/02 08:11:14;;;;;;;15.37;7.33;;;6.80;99.90;;;;;;4127408;28;20046;-64
2021/12/02 08:13:16;;;;;;;14.20;6.53;;;6.90;99.90;;;;;;4127231;28;20034;-72
2021/12/02 08:15:27;;;;;;;38.87;16.50;;;7.00;99.90;;;;;;4126859;28;20080;-63
2021/12/02 08:17:28;;;;;;;45.10;17.03;;;7.10;99.90;;;;;;4127111;28;20166;-62
2021/12/02 08:19:29;;;;;;;50.07;16.83;;;7.10;99.90;;;;;;4126676;28;20364;-70
2021/12/02 08:21:30;;;;;;;37.13;14.13;;;7.10;99.90;;;;;;4127724;28;20097;-70
2021/12/02 08:23:32;;;;;;;43.97;15.30;;;7.10;99.90;;;;;;4125892;28;20074;-61
2021/12/02 08:25:33;;;;;;;41.37;13.73;;;7.10;99.90;;;;;;4127000;28;20088;-63
2021/12/02 08:27:34;;;;;;;52.23;17.50;;;7.10;99.90;;;;;;4126459;28;20826;-71
2021/12/02 08:29:36;;;;;;;65.03;16.63;;;7.20;99.90;;;;;;4127545;28;20046;-61
2021/12/02 08:31:37;;;;;;;31.30;12.63;;;7.20;99.90;;;;;;4126226;28;20102;-64
2021/12/02 08:33:38;;;;;;;21.40;8.73;;;7.30;99.90;;;;;;4127641;28;20376;-61
2021/12/02 08:35:40;;;;;;;12.67;4.83;;;7.40;99.90;;;;;;4126441;28;20089;-62
2021/12/02 08:37:45;;;;;;;8.00;3.80;;;7.40;99.90;;;;;;4127252;28;20542;-62
2021/12/02 08:39:47;;;;;;;6.87;2.50;;;7.60;99.90;;;;;;4125689;28;20039;-62
2021/12/02 08:41:49;;;;;;;5.27;2.00;;;7.70;99.90;;;;;;4127282;28;20101;-65
2021/12/02 08:43:50;;;;;;;9.50;2.60;;;7.90;99.90;;;;;;4125953;28;20034;-66
2021/12/02 08:45:51;;;;;;;8.23;1.80;;;8.00;99.90;;;;;;4127063;28;20046;-70
2021/12/02 08:47:54;;;;;;;2.33;1.00;;;8.10;99.90;;;;;;4124467;28;20540;-63
2021/12/02 08:49:56;;;;;;;1.13;0.67;;;8.20;99.90;;;;;;4126549;28;20093;-77
2021/12/02 08:51:57;;;;;;;0.80;0.53;;;8.40;99.90;;;;;;4126218;28;20046;-61
2021/12/02 08:53:58;;;;;;;0.77;0.73;;;8.40;99.90;;;;;;4125845;28;20486;-62
2021/12/02 08:55:59;;;;;;;1.50;0.60;;;8.50;99.90;;;;;;4127004;28;20153;-67
2021/12/02 08:58:03;;;;;;;2.97;0.90;;;8.60;99.90;;;;;;4126069;28;20038;-63
2021/12/02 09:00:08;;;;;;;1.83;1.00;;;8.70;99.90;;;;;;4127729;28;20426;-73
2021/12/02 09:02:10;;;;;;;5.07;2.10;;;8.80;99.90;;;;;;4124736;28;20035;-62
2021/12/02 09:04:11;;;;;;;6.40;3.33;;;8.90;99.90;;;;;;4127604;28;20097;-64
2021/12/02 09:06:12;;;;;;;16.13;8.17;;;8.90;99.90;;;;;;4124968;28;20101;-67
2021/12/02 09:08:15;;;;;;;7.30;2.53;;;9.00;99.90;;;;;;4126483;28;20038;-62
2021/12/02 09:10:21;;;;;;;2.80;1.50;;;9.10;99.90;;;;;;4125390;28;20054;-61
2021/12/02 09:12:23;;;;;;;15.30;5.00;;;9.10;99.90;;;;;;4126713;28;20133;-62
2021/12/02 09:14:25;;;;;;;25.50;6.53;;;9.20;99.90;;;;;;4125776;28;20463;-62
2021/12/02 09:16:26;;;;;;;20.73;7.27;;;9.10;99.90;;;;;;4126394;28;20081;-61
2021/12/02 09:18:27;;;;;;;20.80;7.97;;;9.00;99.90;;;;;;4125437;28;20501;-61
2021/12/02 09:20:28;;;;;;;25.27;8.00;;;9.00;99.90;;;;;;4126196;28;20034;-63
2021/12/02 09:22:29;;;;;;;27.23;7.20;;;9.00;99.90;;;;;;4125807;28;20026;-63
2021/12/02 09:24:31;;;;;;;17.53;6.87;;;9.10;99.90;;;;;;4125621;28;20845;-63
2021/12/02 09:26:32;;;;;;;24.83;6.93;;;9.10;99.90;;;;;;4125690;28;20089;-61
2021/12/02 09:28:33;;;;;;;23.63;7.00;;;9.00;99.90;;;;;;4125372;28;20946;-61
2021/12/02 09:30:36;;;;;;;39.50;8.63;;;9.00;99.90;;;;;;4126759;28;20093;-64
2021/12/02 09:32:38;;;;;;;28.23;6.77;;;9.00;99.90;;;;;;4125430;28;20050;-63
2021/12/02 09:34:39;;;;;;;32.40;7.30;;;9.00;99.90;;;;;;4126660;28;20154;-63
2021/12/02 09:36:41;;;;;;;31.20;7.63;;;9.00;99.90;;;;;;4125315;28;20383;-62
2021/12/02 09:38:44;;;;;;;26.80;7.17;;;9.10;99.90;;;;;;4126419;28;20096;-62
2021/12/02 09:40:46;;;;;;;25.90;7.00;;;9.10;99.90;;;;;;4125159;28;20046;-68
2021/12/02 09:42:47;;;;;;;26.80;7.57;;;9.10;99.90;;;;;;4126629;28;20105;-71
2021/12/02 09:44:53;;;;;;;19.87;5.43;;;9.20;99.90;;;;;;4125130;28;20522;-62
2021/12/02 09:46:55;;;;;;;15.87;4.13;;;9.20;99.90;;;;;;4126218;28;20046;-72
2021/12/02 09:48:57;;;;;;;22.63;6.17;;;9.30;99.90;;;;;;4124858;28;20046;-62
2021/12/02 09:51:09;;;;;;;21.93;8.63;;;9.50;99.90;;;;;;4126432;28;20084;-63
2021/12/02 09:53:14;;;;;;;23.60;7.53;;;9.60;99.90;;;;;;4125126;28;20022;-68
2021/12/02 09:55:21;;;;;;;20.80;6.80;;;9.70;99.90;;;;;;4126160;28;20368;-62
2021/12/02 09:57:27;;;;;;;18.97;5.70;;;9.60;99.90;;;;;;4124727;28;20026;-61
2021/12/02 10:01:49;;;;;;;15.87;5.30;;;9.50;99.90;;;;;;4125013;28;20093;-65
2021/12/02 10:03:59;;;;;;;15.70;5.50;;;9.50;99.90;;;;;;4125761;28;20065;-62
2021/12/02 10:06:08;;;;;;;15.80;5.68;;;9.50;99.90;;;;;;4124006;28;20046;-61
2021/12/02 10:08:16;;;;;;;10.73;3.93;;;9.50;99.90;;;;;;4125817;28;20101;-62
2021/12/02 10:10:54;;;;;;;11.47;5.07;;;9.50;99.90;;;;;;4124328;28;20073;-65
2021/12/02 10:13:06;;;;;;;18.17;6.87;;;9.60;99.90;;;;;;4124955;28;20046;-68
2021/12/02 10:15:13;;;;;;;14.70;6.00;;;9.70;99.90;;;;;;4124514;28;20042;-63
2021/12/02 10:17:21;;;;;;;18.63;7.60;;;9.70;99.90;;;;;;4125422;28;20080;-69
2021/12/02 10:19:27;;;;;;;14.67;5.97;;;9.80;99.90;;;;;;4123811;28;20038;-61
2021/12/02 10:21:43;;;;;;;13.00;4.43;;;9.80;99.90;;;;;;4125459;28;20090;-62
2021/12/02 10:23:47;;;;;;;17.83;4.00;;;9.80;99.90;;;;;;4124745;28;20081;-63
2021/12/02 10:25:56;;;;;;;13.50;4.50;;;9.80;99.90;;;;;;4125779;28;20035;-66
2021/12/02 10:28:18;;;;;;;14.37;4.03;;;9.80;99.90;;;;;;4124397;28;20162;-73
2021/12/02 10:30:24;;;;;;;5.33;2.70;;;9.90;99.90;;;;;;4125563;28;20065;-65
2021/12/02 10:32:31;;;;;;;6.70;2.77;;;9.90;99.90;;;;;;4124227;28;20039;-76
2021/12/02 10:34:48;;;;;;;4.40;1.93;;;9.80;99.90;;;;;;4125458;28;20527;-64
2021/12/02 10:36:49;;;;;;;4.40;2.37;;;9.80;99.90;;;;;;4124399;28;20046;-65
2021/12/02 10:38:51;;;;;;;9.57;3.17;;;9.80;99.90;;;;;;4125190;28;20528;-66
2021/12/02 10:41:00;;;;;;;10.87;3.43;;;9.80;99.90;;;;;;4124582;28;20487;-65
2021/12/02 10:43:08;;;;;;;3.23;2.33;;;9.90;99.90;;;;;;4125490;28;20077;-68
2021/12/02 10:45:30;;;;;;;5.00;2.47;;;9.80;99.90;;;;;;4124698;28;20030;-63
2021/12/02 10:47:32;;;;;;;13.30;3.83;;;9.80;99.90;;;;;;4125133;28;20061;-71
2021/12/02 10:49:41;;;;;;;8.57;3.80;;;9.80;99.90;;;;;;4123866;28;20484;-64
2021/12/02 10:51:50;;;;;;;10.40;3.90;;;9.80;99.90;;;;;;4125251;28;20399;-62
2021/12/02 10:54:03;;;;;;;10.67;4.17;;;9.90;99.90;;;;;;4123756;28;20486;-73
2021/12/02 10:56:10;;;;;;;14.50;5.20;;;9.90;99.90;;;;;;4125092;28;20038;-62
2021/12/02 10:58:11;;;;;;;8.27;3.50;;;9.90;99.90;;;;;;4123277;28;20374;-61